logo
Search for airport 
image banner adimage banner adimage banner ad
image banner ad

YPVID - Presevation Island

Located in Cape Barren Island, Australia

ICAO - , IATA -

Data provided by Airmate  

General information

Coordinates: S40°28'36" E148°4'7"
Elevation is 25 feet MSL.
Magnetic variation is 14° East
View others Airports in Tasmania

Operational data

Special qualification required
Current time UTC:
Current local time:
Weather at : - ( 0 km )
METAR: PATQ 220905Z AUTO 05016KT 2SM UP BR OVC003 M05/M06 A2995 RMK AO2 VIS 3/4V5 CIG 002V007 P0000 FZRANO TSNO
View NOTAMs / SUP AIP / TFR affecting this airport [VIEW]
Communications frequencies: [VIEW]

Runways:

RWY identifierQFULength (ft)Width (ft)SurfaceLDA (ft)
30314°143334GRAS
12134°143334GRAS
0568°93041GRAS
23248°93041GRAS

Airport contact information

Address: Cape Barren Island Australia

Satellite view of YPVID